sensor_id;sensor_type;location;lat;lon;timestamp;P1;durP1;ratioP1;P2;durP2;ratioP2
75160;SDS011;67232;50.096;8.716;2023-06-10T00:00:26;3.85;;;0.10;;
75160;SDS011;67232;50.096;8.716;2023-06-10T00:02:56;2.30;;;0.00;;
75160;SDS011;67232;50.096;8.716;2023-06-10T00:05:24;2.65;;;0.00;;
75160;SDS011;67232;50.096;8.716;2023-06-10T00:07:49;2.17;;;0.00;;
75160;SDS011;67232;50.096;8.716;2023-06-10T00:10:20;2.88;;;0.00;;
75160;SDS011;67232;50.096;8.716;2023-06-10T00:12:48;4.38;;;0.00;;
75160;SDS011;67232;50.096;8.716;2023-06-10T00:15:13;2.92;;;0.00;;
75160;SDS011;67232;50.096;8.716;2023-06-10T00:17:41;2.95;;;0.00;;
75160;SDS011;67232;50.096;8.716;2023-06-10T00:20:08;3.45;;;0.03;;
75160;SDS011;67232;50.096;8.716;2023-06-10T00:22:36;4.95;;;0.10;;
75160;SDS011;67232;50.096;8.716;2023-06-10T00:25:04;3.38;;;0.13;;
75160;SDS011;67232;50.096;8.716;2023-06-10T00:27:31;3.17;;;0.03;;
75160;SDS011;67232;50.096;8.716;2023-06-10T00:30:03;3.55;;;0.00;;
75160;SDS011;67232;50.096;8.716;2023-06-10T00:32:31;3.75;;;0.00;;
75160;SDS011;67232;50.096;8.716;2023-06-10T00:35:00;2.58;;;0.00;;
75160;SDS011;67232;50.096;8.716;2023-06-10T00:37:26;2.58;;;0.00;;
75160;SDS011;67232;50.096;8.716;2023-06-10T00:39:53;2.85;;;0.00;;
75160;SDS011;67232;50.096;8.716;2023-06-10T00:42:19;3.30;;;0.00;;
75160;SDS011;67232;50.096;8.716;2023-06-10T00:44:44;2.15;;;0.00;;
75160;SDS011;67232;50.096;8.716;2023-06-10T00:47:12;1.90;;;0.00;;
75160;SDS011;67232;50.096;8.716;2023-06-10T00:49:38;2.83;;;0.00;;
75160;SDS011;67232;50.096;8.716;2023-06-10T00:52:07;3.33;;;0.10;;
75160;SDS011;67232;50.096;8.716;2023-06-10T00:54:33;3.13;;;0.00;;
75160;SDS011;67232;50.096;8.716;2023-06-10T00:57:00;4.40;;;0.17;;
75160;SDS011;67232;50.096;8.716;2023-06-10T00:59:28;3.13;;;0.00;;
75160;SDS011;67232;50.096;8.716;2023-06-10T01:01:54;3.90;;;0.00;;
75160;SDS011;67232;50.096;8.716;2023-06-10T01:04:21;2.78;;;0.00;;
75160;SDS011;67232;50.096;8.716;2023-06-10T01:06:54;3.75;;;0.20;;
75160;SDS011;67232;50.096;8.716;2023-06-10T01:09:43;2.72;;;0.10;;
75160;SDS011;67232;50.096;8.716;2023-06-10T01:15:01;3.67;;;0.00;;
75160;SDS011;67232;50.096;8.716;2023-06-10T01:17:29;2.63;;;0.00;;
75160;SDS011;67232;50.096;8.716;2023-06-10T01:19:58;3.60;;;0.00;;
75160;SDS011;67232;50.096;8.716;2023-06-10T01:22:24;2.85;;;0.05;;
75160;SDS011;67232;50.096;8.716;2023-06-10T01:24:53;2.30;;;0.10;;
75160;SDS011;67232;50.096;8.716;2023-06-10T01:27:23;6.47;;;0.10;;
75160;SDS011;67232;50.096;8.716;2023-06-10T01:29:58;2.40;;;0.00;;
75160;SDS011;67232;50.096;8.716;2023-06-10T01:32:32;3.85;;;0.00;;
75160;SDS011;67232;50.096;8.716;2023-06-10T01:35:02;2.80;;;0.00;;
75160;SDS011;67232;50.096;8.716;2023-06-10T01:37:32;19.33;;;4.18;;
75160;SDS011;67232;50.096;8.716;2023-06-10T01:39:59;46.08;;;10.68;;
75160;SDS011;67232;50.096;8.716;2023-06-10T01:42:28;26.83;;;6.32;;
75160;SDS011;67232;50.096;8.716;2023-06-10T01:44:57;16.90;;;2.67;;
75160;SDS011;67232;50.096;8.716;2023-06-10T01:47:23;12.25;;;2.25;;
75160;SDS011;67232;50.096;8.716;2023-06-10T01:49:48;12.07;;;2.58;;
75160;SDS011;67232;50.096;8.716;2023-06-10T01:52:14;29.08;;;7.38;;
75160;SDS011;67232;50.096;8.716;2023-06-10T01:54:42;11.32;;;2.08;;
75160;SDS011;67232;50.096;8.716;2023-06-10T01:57:08;6.05;;;0.50;;
75160;SDS011;67232;50.096;8.716;2023-06-10T01:59:33;6.88;;;0.40;;
75160;SDS011;67232;50.096;8.716;2023-06-10T02:01:59;4.93;;;0.15;;
75160;SDS011;67232;50.096;8.716;2023-06-10T02:04:25;5.30;;;0.63;;
75160;SDS011;67232;50.096;8.716;2023-06-10T02:06:50;5.50;;;0.40;;
75160;SDS011;67232;50.096;8.716;2023-06-10T02:09:18;4.28;;;0.55;;
75160;SDS011;67232;50.096;8.716;2023-06-10T02:11:43;2.42;;;0.00;;
75160;SDS011;67232;50.096;8.716;2023-06-10T02:14:09;2.83;;;0.00;;
75160;SDS011;67232;50.096;8.716;2023-06-10T02:16:37;3.67;;;0.15;;
75160;SDS011;67232;50.096;8.716;2023-06-10T02:19:05;5.28;;;0.50;;
75160;SDS011;67232;50.096;8.716;2023-06-10T02:21:32;7.63;;;0.82;;
75160;SDS011;67232;50.096;8.716;2023-06-10T02:23:59;6.80;;;1.52;;
75160;SDS011;67232;50.096;8.716;2023-06-10T02:26:28;6.68;;;0.63;;
75160;SDS011;67232;50.096;8.716;2023-06-10T02:28:53;4.72;;;0.20;;
75160;SDS011;67232;50.096;8.716;2023-06-10T02:31:21;4.10;;;0.20;;
75160;SDS011;67232;50.096;8.716;2023-06-10T02:33:52;5.25;;;0.10;;
75160;SDS011;67232;50.096;8.716;2023-06-10T02:36:20;2.35;;;0.00;;
75160;SDS011;67232;50.096;8.716;2023-06-10T02:38:48;2.70;;;0.00;;
75160;SDS011;67232;50.096;8.716;2023-06-10T02:41:17;4.43;;;0.00;;
75160;SDS011;67232;50.096;8.716;2023-06-10T02:43:42;4.47;;;0.10;;
75160;SDS011;67232;50.096;8.716;2023-06-10T02:46:08;2.28;;;0.00;;
75160;SDS011;67232;50.096;8.716;2023-06-10T02:48:40;2.70;;;0.00;;
75160;SDS011;67232;50.096;8.716;2023-06-10T02:51:09;2.72;;;0.00;;
75160;SDS011;67232;50.096;8.716;2023-06-10T02:53:35;2.45;;;0.00;;
75160;SDS011;67232;50.096;8.716;2023-06-10T02:56:01;3.17;;;0.00;;
75160;SDS011;67232;50.096;8.716;2023-06-10T02:58:27;4.50;;;0.17;;
75160;SDS011;67232;50.096;8.716;2023-06-10T03:00:52;3.30;;;0.10;;
75160;SDS011;67232;50.096;8.716;2023-06-10T03:03:20;3.50;;;0.10;;
75160;SDS011;67232;50.096;8.716;2023-06-10T03:05:47;2.95;;;0.13;;
75160;SDS011;67232;50.096;8.716;2023-06-10T03:08:13;3.03;;;0.00;;
75160;SDS011;67232;50.096;8.716;2023-06-10T03:10:38;3.70;;;0.10;;
75160;SDS011;67232;50.096;8.716;2023-06-10T03:13:04;4.95;;;0.10;;
75160;SDS011;67232;50.096;8.716;2023-06-10T03:15:35;4.50;;;0.00;;
75160;SDS011;67232;50.096;8.716;2023-06-10T03:18:02;4.72;;;0.00;;
75160;SDS011;67232;50.096;8.716;2023-06-10T03:20:31;4.45;;;0.03;;
75160;SDS011;67232;50.096;8.716;2023-06-10T03:23:01;3.83;;;0.00;;
75160;SDS011;67232;50.096;8.716;2023-06-10T03:25:27;2.83;;;0.10;;
75160;SDS011;67232;50.096;8.716;2023-06-10T03:27:58;3.20;;;0.00;;
75160;SDS011;67232;50.096;8.716;2023-06-10T03:30:27;3.35;;;0.00;;
75160;SDS011;67232;50.096;8.716;2023-06-10T03:32:52;2.90;;;0.00;;
75160;SDS011;67232;50.096;8.716;2023-06-10T03:35:20;1.52;;;0.00;;
75160;SDS011;67232;50.096;8.716;2023-06-10T03:37:46;2.08;;;0.08;;
75160;SDS011;67232;50.096;8.716;2023-06-10T03:42:39;3.47;;;0.00;;
75160;SDS011;67232;50.096;8.716;2023-06-10T03:45:05;3.25;;;0.03;;
75160;SDS011;67232;50.096;8.716;2023-06-10T03:50:05;2.47;;;0.00;;
75160;SDS011;67232;50.096;8.716;2023-06-10T03:52:32;1.50;;;0.00;;
75160;SDS011;67232;50.096;8.716;2023-06-10T03:54:58;3.30;;;0.00;;
75160;SDS011;67232;50.096;8.716;2023-06-10T03:57:24;3.58;;;0.00;;
75160;SDS011;67232;50.096;8.716;2023-06-10T03:59:50;3.53;;;0.00;;
75160;SDS011;67232;50.096;8.716;2023-06-10T04:02:20;1.67;;;0.00;;
75160;SDS011;67232;50.096;8.716;2023-06-10T04:04:46;2.50;;;0.00;;
75160;SDS011;67232;50.096;8.716;2023-06-10T04:07:14;1.85;;;0.00;;
75160;SDS011;67232;50.096;8.716;2023-06-10T04:09:39;5.43;;;0.20;;
75160;SDS011;67232;50.096;8.716;2023-06-10T04:12:05;2.80;;;0.00;;
75160;SDS011;67232;50.096;8.716;2023-06-10T04:14:33;1.65;;;0.00;;
75160;SDS011;67232;50.096;8.716;2023-06-10T04:17:02;1.85;;;0.00;;
75160;SDS011;67232;50.096;8.716;2023-06-10T04:19:31;1.70;;;0.00;;
75160;SDS011;67232;50.096;8.716;2023-06-10T04:22:00;3.05;;;0.08;;
75160;SDS011;67232;50.096;8.716;2023-06-10T04:24:28;2.63;;;0.00;;
75160;SDS011;67232;50.096;8.716;2023-06-10T04:26:55;2.45;;;0.00;;
75160;SDS011;67232;50.096;8.716;2023-06-10T04:29:21;2.58;;;0.00;;
75160;SDS011;67232;50.096;8.716;2023-06-10T04:31:46;2.95;;;0.00;;
75160;SDS011;67232;50.096;8.716;2023-06-10T04:34:12;2.38;;;0.00;;
75160;SDS011;67232;50.096;8.716;2023-06-10T04:36:38;3.60;;;0.00;;
75160;SDS011;67232;50.096;8.716;2023-06-10T04:39:04;2.53;;;0.00;;
75160;SDS011;67232;50.096;8.716;2023-06-10T04:41:30;1.67;;;0.00;;
75160;SDS011;67232;50.096;8.716;2023-06-10T04:43:59;3.53;;;0.00;;
75160;SDS011;67232;50.096;8.716;2023-06-10T04:46:27;2.00;;;0.00;;
75160;SDS011;67232;50.096;8.716;2023-06-10T04:48:52;2.83;;;0.00;;
75160;SDS011;67232;50.096;8.716;2023-06-10T04:51:21;2.72;;;0.00;;
75160;SDS011;67232;50.096;8.716;2023-06-10T04:53:47;2.55;;;0.00;;
75160;SDS011;67232;50.096;8.716;2023-06-10T04:56:15;2.40;;;0.00;;
75160;SDS011;67232;50.096;8.716;2023-06-10T04:58:43;3.58;;;0.00;;
75160;SDS011;67232;50.096;8.716;2023-06-10T05:01:16;2.47;;;0.00;;
75160;SDS011;67232;50.096;8.716;2023-06-10T05:03:43;2.00;;;0.00;;
75160;SDS011;67232;50.096;8.716;2023-06-10T05:06:09;1.48;;;0.00;;
75160;SDS011;67232;50.096;8.716;2023-06-10T05:08:35;3.95;;;0.00;;
75160;SDS011;67232;50.096;8.716;2023-06-10T05:11:01;1.88;;;0.00;;
75160;SDS011;67232;50.096;8.716;2023-06-10T05:13:26;1.48;;;0.00;;
75160;SDS011;67232;50.096;8.716;2023-06-10T05:15:52;2.63;;;0.00;;
75160;SDS011;67232;50.096;8.716;2023-06-10T05:18:18;2.90;;;0.00;;
75160;SDS011;67232;50.096;8.716;2023-06-10T05:20:43;4.50;;;0.00;;
75160;SDS011;67232;50.096;8.716;2023-06-10T05:23:11;1.83;;;0.00;;
75160;SDS011;67232;50.096;8.716;2023-06-10T05:25:37;3.10;;;0.00;;
75160;SDS011;67232;50.096;8.716;2023-06-10T05:28:05;1.95;;;0.00;;
75160;SDS011;67232;50.096;8.716;2023-06-10T05:30:34;2.25;;;0.00;;
75160;SDS011;67232;50.096;8.716;2023-06-10T05:33:00;3.45;;;0.00;;
75160;SDS011;67232;50.096;8.716;2023-06-10T05:35:26;2.67;;;0.00;;
75160;SDS011;67232;50.096;8.716;2023-06-10T05:37:51;2.17;;;0.00;;
75160;SDS011;67232;50.096;8.716;2023-06-10T05:40:17;2.50;;;0.00;;
75160;SDS011;67232;50.096;8.716;2023-06-10T05:42:48;2.80;;;0.00;;
75160;SDS011;67232;50.096;8.716;2023-06-10T05:45:13;3.33;;;0.00;;
75160;SDS011;67232;50.096;8.716;2023-06-10T05:47:39;2.58;;;0.00;;
75160;SDS011;67232;50.096;8.716;2023-06-10T05:50:05;2.65;;;0.00;;
75160;SDS011;67232;50.096;8.716;2023-06-10T05:52:35;4.55;;;0.00;;
75160;SDS011;67232;50.096;8.716;2023-06-10T05:55:07;1.83;;;0.00;;
75160;SDS011;67232;50.096;8.716;2023-06-10T05:57:33;1.55;;;0.00;;
75160;SDS011;67232;50.096;8.716;2023-06-10T05:59:59;2.47;;;0.00;;
75160;SDS011;67232;50.096;8.716;2023-06-10T06:02:27;2.03;;;0.00;;
75160;SDS011;67232;50.096;8.716;2023-06-10T06:04:53;1.95;;;0.00;;
75160;SDS011;67232;50.096;8.716;2023-06-10T06:07:21;1.90;;;0.00;;
75160;SDS011;67232;50.096;8.716;2023-06-10T06:09:47;3.75;;;0.00;;
75160;SDS011;67232;50.096;8.716;2023-06-10T06:12:12;1.73;;;0.00;;
75160;SDS011;67232;50.096;8.716;2023-06-10T06:14:40;2.22;;;0.00;;
75160;SDS011;67232;50.096;8.716;2023-06-10T06:17:06;5.50;;;0.50;;
75160;SDS011;67232;50.096;8.716;2023-06-10T06:19:37;3.28;;;0.00;;
75160;SDS011;67232;50.096;8.716;2023-06-10T06:22:03;2.60;;;0.00;;
75160;SDS011;67232;50.096;8.716;2023-06-10T06:24:31;1.33;;;0.00;;
75160;SDS011;67232;50.096;8.716;2023-06-10T06:26:57;3.13;;;0.00;;
75160;SDS011;67232;50.096;8.716;2023-06-10T06:29:23;8.95;;;1.90;;
75160;SDS011;67232;50.096;8.716;2023-06-10T06:31:48;8.38;;;0.20;;
75160;SDS011;67232;50.096;8.716;2023-06-10T06:34:14;2.95;;;0.00;;
75160;SDS011;67232;50.096;8.716;2023-06-10T06:36:39;2.88;;;0.00;;
75160;SDS011;67232;50.096;8.716;2023-06-10T06:39:05;2.83;;;0.10;;
75160;SDS011;67232;50.096;8.716;2023-06-10T06:41:30;4.70;;;0.73;;
75160;SDS011;67232;50.096;8.716;2023-06-10T06:43:59;2.65;;;0.00;;
75160;SDS011;67232;50.096;8.716;2023-06-10T06:46:27;4.00;;;0.00;;
75160;SDS011;67232;50.096;8.716;2023-06-10T06:48:55;4.00;;;0.20;;
75160;SDS011;67232;50.096;8.716;2023-06-10T06:51:21;2.45;;;0.00;;
75160;SDS011;67232;50.096;8.716;2023-06-10T06:53:46;4.32;;;0.10;;
75160;SDS011;67232;50.096;8.716;2023-06-10T06:56:12;1.60;;;0.00;;
75160;SDS011;67232;50.096;8.716;2023-06-10T06:58:38;3.90;;;0.10;;
75160;SDS011;67232;50.096;8.716;2023-06-10T07:01:04;3.17;;;0.00;;
75160;SDS011;67232;50.096;8.716;2023-06-10T07:03:31;3.65;;;0.10;;
75160;SDS011;67232;50.096;8.716;2023-06-10T07:05:57;1.50;;;0.00;;
75160;SDS011;67232;50.096;8.716;2023-06-10T07:08:22;1.83;;;0.00;;
75160;SDS011;67232;50.096;8.716;2023-06-10T07:10:48;3.15;;;0.00;;
75160;SDS011;67232;50.096;8.716;2023-06-10T07:13:16;3.88;;;0.10;;
75160;SDS011;67232;50.096;8.716;2023-06-10T07:15:42;2.50;;;0.00;;
75160;SDS011;67232;50.096;8.716;2023-06-10T07:18:07;2.53;;;0.00;;
75160;SDS011;67232;50.096;8.716;2023-06-10T07:20:35;2.63;;;0.00;;
75160;SDS011;67232;50.096;8.716;2023-06-10T07:23:01;2.92;;;0.03;;
75160;SDS011;67232;50.096;8.716;2023-06-10T07:25:29;1.52;;;0.00;;
75160;SDS011;67232;50.096;8.716;2023-06-10T07:27:54;7.30;;;0.15;;
75160;SDS011;67232;50.096;8.716;2023-06-10T07:30:20;4.00;;;0.00;;
75160;SDS011;67232;50.096;8.716;2023-06-10T07:32:45;1.90;;;0.00;;
75160;SDS011;67232;50.096;8.716;2023-06-10T07:35:11;2.28;;;0.00;;
75160;SDS011;67232;50.096;8.716;2023-06-10T07:37:37;2.95;;;0.00;;
75160;SDS011;67232;50.096;8.716;2023-06-10T07:40:03;3.05;;;0.00;;
75160;SDS011;67232;50.096;8.716;2023-06-10T07:42:29;1.98;;;0.00;;
75160;SDS011;67232;50.096;8.716;2023-06-10T07:44:56;3.65;;;0.00;;
75160;SDS011;67232;50.096;8.716;2023-06-10T07:47:23;2.10;;;0.00;;
75160;SDS011;67232;50.096;8.716;2023-06-10T07:49:49;1.70;;;0.00;;
75160;SDS011;67232;50.096;8.716;2023-06-10T07:52:15;2.63;;;0.00;;
75160;SDS011;67232;50.096;8.716;2023-06-10T07:54:40;3.92;;;0.00;;
75160;SDS011;67232;50.096;8.716;2023-06-10T07:57:06;4.32;;;0.00;;
75160;SDS011;67232;50.096;8.716;2023-06-10T07:59:34;1.55;;;0.00;;
75160;SDS011;67232;50.096;8.716;2023-06-10T08:02:00;4.53;;;0.08;;
75160;SDS011;67232;50.096;8.716;2023-06-10T08:04:26;1.73;;;0.00;;
75160;SDS011;67232;50.096;8.716;2023-06-10T08:06:51;4.72;;;0.00;;
75160;SDS011;67232;50.096;8.716;2023-06-10T08:09:17;2.35;;;0.00;;
75160;SDS011;67232;50.096;8.716;2023-06-10T08:11:43;2.42;;;0.00;;
75160;SDS011;67232;50.096;8.716;2023-06-10T08:14:11;2.88;;;0.00;;
75160;SDS011;67232;50.096;8.716;2023-06-10T08:16:37;2.97;;;0.00;;
75160;SDS011;67232;50.096;8.716;2023-06-10T08:19:02;3.03;;;0.00;;
75160;SDS011;67232;50.096;8.716;2023-06-10T08:21:28;1.83;;;0.00;;
75160;SDS011;67232;50.096;8.716;2023-06-10T08:23:53;2.67;;;0.08;;
75160;SDS011;67232;50.096;8.716;2023-06-10T08:26:21;3.80;;;0.00;;
75160;SDS011;67232;50.096;8.716;2023-06-10T08:28:47;2.80;;;0.00;;
75160;SDS011;67232;50.096;8.716;2023-06-10T08:31:13;2.28;;;0.00;;
75160;SDS011;67232;50.096;8.716;2023-06-10T08:33:41;2.03;;;0.00;;
75160;SDS011;67232;50.096;8.716;2023-06-10T08:36:07;1.55;;;0.00;;
75160;SDS011;67232;50.096;8.716;2023-06-10T08:38:33;5.47;;;0.00;;
75160;SDS011;67232;50.096;8.716;2023-06-10T08:41:01;1.45;;;0.00;;
75160;SDS011;67232;50.096;8.716;2023-06-10T08:43:39;4.35;;;0.10;;
75160;SDS011;67232;50.096;8.716;2023-06-10T08:46:14;1.80;;;0.00;;
75160;SDS011;67232;50.096;8.716;2023-06-10T08:48:43;2.10;;;0.03;;
75160;SDS011;67232;50.096;8.716;2023-06-10T08:51:11;1.95;;;0.00;;
75160;SDS011;67232;50.096;8.716;2023-06-10T08:56:26;1.58;;;0.00;;
75160;SDS011;67232;50.096;8.716;2023-06-10T08:58:55;2.95;;;0.00;;
75160;SDS011;67232;50.096;8.716;2023-06-10T09:01:23;3.20;;;0.00;;
75160;SDS011;67232;50.096;8.716;2023-06-10T09:03:53;2.15;;;0.00;;
75160;SDS011;67232;50.096;8.716;2023-06-10T09:06:19;1.90;;;0.00;;
75160;SDS011;67232;50.096;8.716;2023-06-10T09:08:45;2.88;;;0.00;;
75160;SDS011;67232;50.096;8.716;2023-06-10T09:11:11;1.58;;;0.00;;
75160;SDS011;67232;50.096;8.716;2023-06-10T09:13:39;1.00;;;0.00;;
75160;SDS011;67232;50.096;8.716;2023-06-10T09:16:05;2.63;;;0.00;;
75160;SDS011;67232;50.096;8.716;2023-06-10T09:18:33;1.98;;;0.00;;
75160;SDS011;67232;50.096;8.716;2023-06-10T09:20:59;2.17;;;0.00;;
75160;SDS011;67232;50.096;8.716;2023-06-10T09:23:27;1.73;;;0.00;;
75160;SDS011;67232;50.096;8.716;2023-06-10T09:25:57;1.77;;;0.00;;
75160;SDS011;67232;50.096;8.716;2023-06-10T09:28:23;3.22;;;0.00;;
75160;SDS011;67232;50.096;8.716;2023-06-10T09:31:01;2.50;;;0.00;;
75160;SDS011;67232;50.096;8.716;2023-06-10T09:33:28;2.25;;;0.00;;
75160;SDS011;67232;50.096;8.716;2023-06-10T09:35:54;3.00;;;0.00;;
75160;SDS011;67232;50.096;8.716;2023-06-10T09:38:22;2.08;;;0.00;;
75160;SDS011;67232;50.096;8.716;2023-06-10T09:40:51;2.15;;;0.00;;
75160;SDS011;67232;50.096;8.716;2023-06-10T09:43:17;1.48;;;0.00;;
75160;SDS011;67232;50.096;8.716;2023-06-10T09:45:43;1.90;;;0.00;;
75160;SDS011;67232;50.096;8.716;2023-06-10T09:48:14;2.20;;;0.00;;
75160;SDS011;67232;50.096;8.716;2023-06-10T09:50:43;4.05;;;0.00;;
75160;SDS011;67232;50.096;8.716;2023-06-10T09:53:12;2.90;;;0.00;;
75160;SDS011;67232;50.096;8.716;2023-06-10T09:55:38;1.52;;;0.00;;
75160;SDS011;67232;50.096;8.716;2023-06-10T09:58:06;3.30;;;0.00;;
75160;SDS011;67232;50.096;8.716;2023-06-10T10:00:34;1.60;;;0.00;;
75160;SDS011;67232;50.096;8.716;2023-06-10T10:03:01;1.52;;;0.00;;
75160;SDS011;67232;50.096;8.716;2023-06-10T10:05:27;1.38;;;0.00;;
75160;SDS011;67232;50.096;8.716;2023-06-10T10:07:55;2.17;;;0.00;;
75160;SDS011;67232;50.096;8.716;2023-06-10T10:10:21;2.28;;;0.00;;
75160;SDS011;67232;50.096;8.716;2023-06-10T10:12:48;1.73;;;0.00;;
75160;SDS011;67232;50.096;8.716;2023-06-10T10:15:16;1.85;;;0.00;;
75160;SDS011;67232;50.096;8.716;2023-06-10T10:20:32;1.98;;;0.00;;
75160;SDS011;67232;50.096;8.716;2023-06-10T10:23:02;1.10;;;0.00;;
75160;SDS011;67232;50.096;8.716;2023-06-10T10:25:30;1.95;;;0.00;;
75160;SDS011;67232;50.096;8.716;2023-06-10T10:30:40;2.20;;;0.00;;
75160;SDS011;67232;50.096;8.716;2023-06-10T10:33:18;2.08;;;0.00;;
75160;SDS011;67232;50.096;8.716;2023-06-10T10:35:48;3.97;;;0.00;;
75160;SDS011;67232;50.096;8.716;2023-06-10T10:38:14;3.20;;;0.00;;
75160;SDS011;67232;50.096;8.716;2023-06-10T10:40:40;1.48;;;0.00;;
75160;SDS011;67232;50.096;8.716;2023-06-10T10:43:06;1.58;;;0.00;;
75160;SDS011;67232;50.096;8.716;2023-06-10T10:45:35;3.05;;;0.00;;
75160;SDS011;67232;50.096;8.716;2023-06-10T10:48:12;2.45;;;0.00;;
75160;SDS011;67232;50.096;8.716;2023-06-10T10:50:39;2.90;;;0.00;;
75160;SDS011;67232;50.096;8.716;2023-06-10T10:53:05;1.35;;;0.00;;
75160;SDS011;67232;50.096;8.716;2023-06-10T10:55:33;2.10;;;0.00;;
75160;SDS011;67232;50.096;8.716;2023-06-10T10:57:59;1.00;;;0.00;;
75160;SDS011;67232;50.096;8.716;2023-06-10T11:00:35;1.58;;;0.00;;
75160;SDS011;67232;50.096;8.716;2023-06-10T11:05:37;2.30;;;0.00;;
75160;SDS011;67232;50.096;8.716;2023-06-10T11:08:13;1.60;;;0.00;;
75160;SDS011;67232;50.096;8.716;2023-06-10T11:10:42;1.67;;;0.00;;
75160;SDS011;67232;50.096;8.716;2023-06-10T11:13:19;0.85;;;0.00;;
75160;SDS011;67232;50.096;8.716;2023-06-10T11:15:48;4.35;;;0.00;;
75160;SDS011;67232;50.096;8.716;2023-06-10T11:18:29;3.00;;;0.00;;
75160;SDS011;67232;50.096;8.716;2023-06-10T11:21:01;1.42;;;0.00;;
75160;SDS011;67232;50.096;8.716;2023-06-10T11:33:48;2.30;;;0.00;;
75160;SDS011;67232;50.096;8.716;2023-06-10T11:36:21;2.15;;;0.00;;
75160;SDS011;67232;50.096;8.716;2023-06-10T11:38:46;1.80;;;0.00;;
75160;SDS011;67232;50.096;8.716;2023-06-10T11:41:16;1.58;;;0.00;;
75160;SDS011;67232;50.096;8.716;2023-06-10T11:43:46;2.95;;;0.00;;
75160;SDS011;67232;50.096;8.716;2023-06-10T11:46:14;2.90;;;0.00;;
75160;SDS011;67232;50.096;8.716;2023-06-10T11:48:48;0.82;;;0.00;;
75160;SDS011;67232;50.096;8.716;2023-06-10T11:51:18;4.13;;;0.00;;
75160;SDS011;67232;50.096;8.716;2023-06-10T11:53:52;1.98;;;0.00;;
75160;SDS011;67232;50.096;8.716;2023-06-10T11:56:19;1.58;;;0.00;;
75160;SDS011;67232;50.096;8.716;2023-06-10T11:58:51;1.65;;;0.00;;
75160;SDS011;67232;50.096;8.716;2023-06-10T12:01:21;2.15;;;0.00;;
75160;SDS011;67232;50.096;8.716;2023-06-10T12:03:50;1.38;;;0.00;;
75160;SDS011;67232;50.096;8.716;2023-06-10T12:06:22;0.75;;;0.00;;
75160;SDS011;67232;50.096;8.716;2023-06-10T12:08:47;1.48;;;0.00;;
75160;SDS011;67232;50.096;8.716;2023-06-10T12:11:13;2.35;;;0.00;;
75160;SDS011;67232;50.096;8.716;2023-06-10T12:13:45;1.27;;;0.00;;
75160;SDS011;67232;50.096;8.716;2023-06-10T12:16:13;1.75;;;0.00;;
75160;SDS011;67232;50.096;8.716;2023-06-10T12:18:43;1.83;;;0.00;;
75160;SDS011;67232;50.096;8.716;2023-06-10T12:21:20;1.88;;;0.00;;
75160;SDS011;67232;50.096;8.716;2023-06-10T12:24:08;1.38;;;0.00;;
75160;SDS011;67232;50.096;8.716;2023-06-10T12:26:35;2.38;;;0.00;;
75160;SDS011;67232;50.096;8.716;2023-06-10T12:29:15;3.05;;;0.00;;
75160;SDS011;67232;50.096;8.716;2023-06-10T12:34:42;1.80;;;0.00;;
75160;SDS011;67232;50.096;8.716;2023-06-10T12:37:12;0.57;;;0.00;;
75160;SDS011;67232;50.096;8.716;2023-06-10T12:39:41;2.33;;;0.00;;
75160;SDS011;67232;50.096;8.716;2023-06-10T12:42:17;2.33;;;0.00;;
75160;SDS011;67232;50.096;8.716;2023-06-10T12:44:47;2.67;;;0.00;;
75160;SDS011;67232;50.096;8.716;2023-06-10T12:47:19;1.15;;;0.00;;
75160;SDS011;67232;50.096;8.716;2023-06-10T12:49:44;2.28;;;0.00;;
75160;SDS011;67232;50.096;8.716;2023-06-10T12:52:10;0.65;;;0.00;;
75160;SDS011;67232;50.096;8.716;2023-06-10T12:54:36;1.50;;;0.00;;
75160;SDS011;67232;50.096;8.716;2023-06-10T12:57:02;1.83;;;0.00;;
75160;SDS011;67232;50.096;8.716;2023-06-10T12:59:30;1.52;;;0.00;;
75160;SDS011;67232;50.096;8.716;2023-06-10T13:01:57;2.25;;;0.00;;
75160;SDS011;67232;50.096;8.716;2023-06-10T13:04:24;2.33;;;0.00;;
75160;SDS011;67232;50.096;8.716;2023-06-10T13:06:50;2.13;;;0.00;;
75160;SDS011;67232;50.096;8.716;2023-06-10T13:09:16;3.33;;;0.00;;
75160;SDS011;67232;50.096;8.716;2023-06-10T13:11:44;2.15;;;0.00;;
75160;SDS011;67232;50.096;8.716;2023-06-10T13:14:12;1.25;;;0.00;;
75160;SDS011;67232;50.096;8.716;2023-06-10T13:16:38;1.95;;;0.00;;
75160;SDS011;67232;50.096;8.716;2023-06-10T13:19:04;2.50;;;0.00;;
75160;SDS011;67232;50.096;8.716;2023-06-10T13:21:30;2.00;;;0.00;;
75160;SDS011;67232;50.096;8.716;2023-06-10T13:23:57;1.55;;;0.00;;
75160;SDS011;67232;50.096;8.716;2023-06-10T13:26:24;2.65;;;0.00;;
75160;SDS011;67232;50.096;8.716;2023-06-10T13:28:53;1.25;;;0.00;;
75160;SDS011;67232;50.096;8.716;2023-06-10T13:31:20;0.90;;;0.00;;
75160;SDS011;67232;50.096;8.716;2023-06-10T13:33:48;1.92;;;0.00;;
75160;SDS011;67232;50.096;8.716;2023-06-10T13:36:14;1.13;;;0.00;;
75160;SDS011;67232;50.096;8.716;2023-06-10T13:38:40;1.15;;;0.00;;
75160;SDS011;67232;50.096;8.716;2023-06-10T13:41:07;2.05;;;0.00;;
75160;SDS011;67232;50.096;8.716;2023-06-10T13:43:38;2.13;;;0.00;;
75160;SDS011;67232;50.096;8.716;2023-06-10T13:46:04;1.15;;;0.00;;
75160;SDS011;67232;50.096;8.716;2023-06-10T13:48:32;1.38;;;0.00;;
75160;SDS011;67232;50.096;8.716;2023-06-10T13:51:00;3.90;;;0.00;;
75160;SDS011;67232;50.096;8.716;2023-06-10T13:53:26;1.95;;;0.00;;
75160;SDS011;67232;50.096;8.716;2023-06-10T13:55:51;2.03;;;0.00;;
75160;SDS011;67232;50.096;8.716;2023-06-10T13:58:17;0.77;;;0.00;;
75160;SDS011;67232;50.096;8.716;2023-06-10T14:00:42;1.77;;;0.00;;
75160;SDS011;67232;50.096;8.716;2023-06-10T14:03:11;0.93;;;0.00;;
75160;SDS011;67232;50.096;8.716;2023-06-10T14:05:37;3.33;;;0.00;;
75160;SDS011;67232;50.096;8.716;2023-06-10T14:08:02;0.95;;;0.00;;
75160;SDS011;67232;50.096;8.716;2023-06-10T14:10:28;1.92;;;0.00;;
75160;SDS011;67232;50.096;8.716;2023-06-10T14:12:54;1.33;;;0.00;;
75160;SDS011;67232;50.096;8.716;2023-06-10T14:15:19;1.48;;;0.00;;
75160;SDS011;67232;50.096;8.716;2023-06-10T14:17:45;2.53;;;0.00;;
75160;SDS011;67232;50.096;8.716;2023-06-10T14:20:10;1.60;;;0.00;;
75160;SDS011;67232;50.096;8.716;2023-06-10T14:22:36;2.05;;;0.00;;
75160;SDS011;67232;50.096;8.716;2023-06-10T14:25:02;1.70;;;0.00;;
75160;SDS011;67232;50.096;8.716;2023-06-10T14:27:28;1.63;;;0.00;;
75160;SDS011;67232;50.096;8.716;2023-06-10T14:29:53;1.52;;;0.00;;
75160;SDS011;67232;50.096;8.716;2023-06-10T14:32:21;1.17;;;0.00;;
75160;SDS011;67232;50.096;8.716;2023-06-10T14:34:52;1.23;;;0.00;;
75160;SDS011;67232;50.096;8.716;2023-06-10T14:37:19;1.00;;;0.00;;
75160;SDS011;67232;50.096;8.716;2023-06-10T14:39:45;0.90;;;0.00;;
75160;SDS011;67232;50.096;8.716;2023-06-10T14:42:10;1.10;;;0.00;;
75160;SDS011;67232;50.096;8.716;2023-06-10T14:44:36;2.08;;;0.00;;
75160;SDS011;67232;50.096;8.716;2023-06-10T14:47:04;3.35;;;0.00;;
75160;SDS011;67232;50.096;8.716;2023-06-10T14:49:30;1.58;;;0.00;;
75160;SDS011;67232;50.096;8.716;2023-06-10T14:51:55;1.40;;;0.00;;
75160;SDS011;67232;50.096;8.716;2023-06-10T14:54:21;1.10;;;0.00;;
75160;SDS011;67232;50.096;8.716;2023-06-10T14:56:46;1.15;;;0.00;;
75160;SDS011;67232;50.096;8.716;2023-06-10T14:59:12;1.20;;;0.00;;
75160;SDS011;67232;50.096;8.716;2023-06-10T15:01:40;1.40;;;0.00;;
75160;SDS011;67232;50.096;8.716;2023-06-10T15:04:05;1.50;;;0.00;;
75160;SDS011;67232;50.096;8.716;2023-06-10T15:06:31;2.25;;;0.00;;
75160;SDS011;67232;50.096;8.716;2023-06-10T15:08:56;1.65;;;0.00;;
75160;SDS011;67232;50.096;8.716;2023-06-10T15:11:24;1.58;;;0.00;;
75160;SDS011;67232;50.096;8.716;2023-06-10T15:13:50;1.17;;;0.00;;
75160;SDS011;67232;50.096;8.716;2023-06-10T15:16:18;1.73;;;0.00;;
75160;SDS011;67232;50.096;8.716;2023-06-10T15:18:43;0.90;;;0.00;;
75160;SDS011;67232;50.096;8.716;2023-06-10T15:21:09;1.83;;;0.00;;